Norrland — C4KF2 — position and weather

sailwx.info

Track history (hours):
 
Tides and Currents Weather Stations Pressure Air Temp Water Temp Dewpoint Dewpoint Depression Visibility Wind Speed Wind Dir Waves Ship Positions

Norrland

Last reported at 2016-Feb-13 01:09 UTC. Time now 2016-Feb-14 16:59 UTC.
Position N 41°60' W 009°23'.

Length 118 m; draft 6.5 m.

Type: Cargo ship. MMSI: 212521000.

Date/timePositionNaut miles runAvg speedWind from/ knotsBaromVisibWave heightAir tempDewpointWater temp
2016-Feb-13 01:09N 41°60' W 009°23'5 8.4
2016-Feb-13 00:33N 41°55' W 009°21'8 7.9
2016-Feb-12 23:30N 41°47' W 009°18'8 8.2
2016-Feb-12 22:33N 41°40' W 009°15'8 8.3
2016-Feb-12 21:33N 41°32' W 009°11'9 8.6
2016-Feb-12 20:33N 41°24' W 009°08'9 8.6
2016-Feb-12 19:33N 41°16' W 009°04'8 8.3
2016-Feb-12 18:33N 41°08' W 009°01'8 8.1
2016-Feb-12 17:33N 41°00' W 008°57'8 8.2
2016-Feb-12 16:33N 40°52' W 008°54'8 7.8
2016-Feb-12 15:33N 40°45' W 008°50'8 7.5
2016-Feb-12 14:33N 40°39' W 008°45'1 0.9
2016-Feb-12 13:30N 40°39' W 008°44'0 0.0
2016-Feb-12 12:30N 40°39' W 008°44'0 0.0
2016-Feb-12 11:27N 40°39' W 008°44'0 0.0
2016-Feb-12 10:27N 40°39' W 008°44'0 0.0
2016-Feb-12 09:30N 40°39' W 008°44'0 0.0
2016-Feb-12 08:30N 40°39' W 008°44'0 0.0
2016-Feb-12 07:30N 40°39' W 008°44'0 0.0
2016-Feb-12 06:27N 40°39' W 008°44'0 0.0
2016-Feb-12 05:21N 40°39' W 008°44'0 0.0
2016-Feb-12 04:33N 40°39' W 008°44'0 0.0
2016-Feb-12 03:30N 40°39' W 008°44'0 0.0
2016-Feb-12 02:33N 40°39' W 008°44'0 0.0
2016-Feb-12 01:27N 40°39' W 008°44'0 0.0
2016-Feb-12 00:30N 40°39' W 008°44'0 0.0
2016-Feb-11 23:15N 40°39' W 008°44'0 0.0
2016-Feb-11 22:30N 40°39' W 008°44'0 0.0
2016-Feb-11 21:33N 40°39' W 008°44'0 0.0
2016-Feb-11 20:27N 40°39' W 008°44'0 0.0
2016-Feb-11 19:26N 40°39' W 008°44'0 0.0
2016-Feb-11 18:33N 40°39' W 008°44'0 0.0
2016-Feb-11 16:30N 40°39' W 008°44'0 0.0
2016-Feb-11 15:27N 40°39' W 008°44'0 0.0
2016-Feb-11 14:27N 40°39' W 008°44'0 0.0
2016-Feb-11 13:33N 40°39' W 008°44'0 0.0
2016-Feb-11 12:30N 40°39' W 008°44'0 0.0
2016-Feb-11 11:23N 40°39' W 008°44'0 0.0
2016-Feb-11 10:30N 40°39' W 008°44'0 0.0
2016-Feb-11 09:33N 40°39' W 008°44'0 0.0
2016-Feb-11 08:33N 40°39' W 008°44'0 0.0
2016-Feb-11 07:30N 40°39' W 008°44'0 0.0
2016-Feb-11 06:30N 40°39' W 008°44'0 0.0
2016-Feb-11 05:30N 40°39' W 008°44'0 0.0
2016-Feb-11 04:30N 40°39' W 008°44'0 0.0
2016-Feb-11 03:27N 40°39' W 008°44'0 0.0
2016-Feb-11 02:33N 40°39' W 008°44'0 0.0
2016-Feb-11 01:21N 40°39' W 008°44'0 0.0
2016-Feb-11 00:30N 40°39' W 008°44'0 0.0
2016-Feb-10 23:27N 40°39' W 008°44'0 0.0
2016-Feb-10 22:27N 40°39' W 008°44'0 0.0
2016-Feb-10 21:33N 40°39' W 008°44'0 0.0
2016-Feb-10 20:27N 40°39' W 008°44'0 0.0
2016-Feb-10 19:33N 40°39' W 008°44'0 0.0
2016-Feb-10 18:27N 40°39' W 008°44'0 0.0
2016-Feb-10 17:30N 40°39' W 008°44'0 0.0
2016-Feb-10 16:33N 40°39' W 008°44'0 0.0
2016-Feb-10 15:27N 40°39' W 008°44'0 0.0
2016-Feb-10 14:27N 40°39' W 008°44'0 0.0
2016-Feb-10 13:34N 40°39' W 008°44'0 0.0
2016-Feb-10 12:33N 40°39' W 008°44'0 0.0
2016-Feb-10 11:30N 40°39' W 008°44'0 0.0
2016-Feb-10 10:18N 40°39' W 008°44'0 0.0
2016-Feb-10 09:21N 40°39' W 008°44'0 0.0
2016-Feb-10 08:27N 40°39' W 008°44'0 0.0
2016-Feb-10 07:33N 40°39' W 008°44'0 0.0
2016-Feb-10 06:33N 40°39' W 008°44'0 0.0
2016-Feb-10 05:30N 40°39' W 008°44'0 0.0
2016-Feb-10 04:30N 40°39' W 008°44'0 0.0
2016-Feb-10 03:23N 40°39' W 008°44'0 0.0
2016-Feb-10 02:27N 40°39' W 008°44'0 0.0
2016-Feb-10 01:30N 40°39' W 008°44'0 0.0
2016-Feb-10 00:33N 40°39' W 008°44'0 0.0
2016-Feb-09 23:30N 40°39' W 008°44'0 0.0
2016-Feb-09 22:31N 40°39' W 008°44'0 0.0
2016-Feb-09 21:11N 40°39' W 008°44'0 0.0
2016-Feb-09 20:33N 40°39' W 008°44'0 0.0
2016-Feb-09 19:33N 40°39' W 008°44'0 0.0
2016-Feb-09 18:27N 40°39' W 008°44'0 0.0
2016-Feb-09 17:30N 40°39' W 008°44'0 0.0
2016-Feb-09 16:27N 40°39' W 008°44'1 0.7
2016-Feb-09 15:31N 40°39' W 008°45'8 8.1
2016-Feb-09 14:33N 40°37' W 008°55'1111.0
2016-Feb-09 13:33N 40°28' W 009°02'1111.1
2016-Feb-09 12:33N 40°18' W 009°10'1111.1
2016-Feb-09 11:33N 40°09' W 009°18'1111.3
2016-Feb-09 10:33N 39°60' W 009°26'1110.5
2016-Feb-09 09:30N 39°50' W 009°33'1010.3
2016-Feb-09 08:33N 39°41' W 009°39'1110.6
2016-Feb-09 07:33N 39°31' W 009°44'10 9.9
2016-Feb-09 06:33N 39°21' W 009°46'1010.0
2016-Feb-09 05:33N 39°12' W 009°47'1010.3
2016-Feb-09 04:33N 39°01' W 009°49'1110.5
2016-Feb-09 03:33N 38°51' W 009°51'1010.3
2016-Feb-09 02:33N 38°41' W 009°50'1010.4
2016-Feb-09 01:34N 38°30' W 009°47'1110.5
2016-Feb-09 00:33N 38°20' W 009°44'1110.5
2016-Feb-08 23:32N 38°10' W 009°41'1010.3
2016-Feb-08 22:33N 37°60' W 009°38'1010.3
2016-Feb-08 21:33N 37°50' W 009°35'1010.2
2016-Feb-08 20:33N 37°40' W 009°33'1110.8
2016-Feb-08 19:33N 37°29' W 009°30'1110.7
2016-Feb-08 18:33N 37°19' W 009°27'1310.1
2016-Feb-08 17:18N 37°07' W 009°23'7 9.7
2016-Feb-08 16:33N 36°60' W 009°21'1010.3
2016-Feb-08 15:33N 36°50' W 009°15'10 9.9
2016-Feb-08 14:33N 36°44' W 009°05'10 9.8
2016-Feb-08 13:30N 36°41' W 008°53'1110.5
2016-Feb-08 12:30N 36°37' W 008°41'1310.2
2016-Feb-08 11:15N 36°33' W 008°26'710.6
2016-Feb-08 10:33N 36°31' W 008°17'6410.6
2016-Feb-08 04:33N 36°11' W 007°02'7110.1
2016-Feb-07 21:33N 35°58' W 005°36'9 8.9
2016-Feb-07 20:33N 36°00' W 005°25'8 8.2
2016-Feb-07 19:33N 35°54' W 005°18'1 0.9
2016-Feb-07 18:31N 35°54' W 005°19'0 0.0
2016-Feb-07 17:31N 35°54' W 005°19'0 0.0
2016-Feb-07 16:34N 35°54' W 005°19'0 0.1
2016-Feb-07 15:34N 35°54' W 005°19'7 6.6
2016-Feb-07 14:33N 35°56' W 005°11'7 7.2
2016-Feb-07 13:34N 35°57' W 005°02'182 9.1
2016-Feb-06 17:33N 36°37' W 001°22'3210.7
2016-Feb-06 14:33N 36°44' W 000°43'3210.7
2016-Feb-06 11:31N 36°51' W 000°04'1311.7
2016-Feb-06 10:22N 36°54' E 000°13'911.6
2016-Feb-06 09:34N 36°57' E 000°24'2611.6
2016-Feb-06 07:16N 37°04' E 000°56'4210.8
2016-Feb-06 03:24N 37°14' E 001°47'5011.7
2016-Feb-05 23:05N 37°27' E 002°48'27710.3
2016-Feb-04 20:12N 38°33' E 008°30'6 8.6
2016-Feb-04 19:33N 38°35' E 008°37'27 9.0
2016-Feb-04 16:33N 38°42' E 009°10'10 9.7
2016-Feb-04 15:33N 38°48' E 009°20'1010.1
2016-Feb-04 14:31N 38°54' E 009°31'  
Track history (hours):
 
Tides and Currents Weather Stations Pressure Air Temp Water Temp Dewpoint Dewpoint Depression Visibility Wind Speed Wind Dir Waves Ship Positions

Norrland

Last reported at 2016-Feb-13 01:09 UTC. Time now 2016-Feb-14 16:59 UTC.
Position N 41°60' W 009°23'.

Length 118 m; draft 6.5 m.

Type: Cargo ship. MMSI: 212521000.

Date/timePositionNaut miles runAvg speedWind from/ knotsBaromVisibWave heightAir tempDewpointWater temp
2016-Feb-13 01:09N 41°60' W 009°23'5 8.4
2016-Feb-13 00:33N 41°55' W 009°21'8 7.9
2016-Feb-12 23:30N 41°47' W 009°18'8 8.2
2016-Feb-12 22:33N 41°40' W 009°15'8 8.3
2016-Feb-12 21:33N 41°32' W 009°11'9 8.6
2016-Feb-12 20:33N 41°24' W 009°08'9 8.6
2016-Feb-12 19:33N 41°16' W 009°04'8 8.3
2016-Feb-12 18:33N 41°08' W 009°01'8 8.1
2016-Feb-12 17:33N 41°00' W 008°57'8 8.2
2016-Feb-12 16:33N 40°52' W 008°54'8 7.8
2016-Feb-12 15:33N 40°45' W 008°50'8 7.5
2016-Feb-12 14:33N 40°39' W 008°45'1 0.9
2016-Feb-12 13:30N 40°39' W 008°44'0 0.0
2016-Feb-12 12:30N 40°39' W 008°44'0 0.0
2016-Feb-12 11:27N 40°39' W 008°44'0 0.0
2016-Feb-12 10:27N 40°39' W 008°44'0 0.0
2016-Feb-12 09:30N 40°39' W 008°44'0 0.0
2016-Feb-12 08:30N 40°39' W 008°44'0 0.0
2016-Feb-12 07:30N 40°39' W 008°44'0 0.0
2016-Feb-12 06:27N 40°39' W 008°44'0 0.0
2016-Feb-12 05:21N 40°39' W 008°44'0 0.0
2016-Feb-12 04:33N 40°39' W 008°44'0 0.0
2016-Feb-12 03:30N 40°39' W 008°44'0 0.0
2016-Feb-12 02:33N 40°39' W 008°44'0 0.0
2016-Feb-12 01:27N 40°39' W 008°44'0 0.0
2016-Feb-12 00:30N 40°39' W 008°44'0 0.0
2016-Feb-11 23:15N 40°39' W 008°44'0 0.0
2016-Feb-11 22:30N 40°39' W 008°44'0 0.0
2016-Feb-11 21:33N 40°39' W 008°44'0 0.0
2016-Feb-11 20:27N 40°39' W 008°44'0 0.0
2016-Feb-11 19:26N 40°39' W 008°44'0 0.0
2016-Feb-11 18:33N 40°39' W 008°44'0 0.0
2016-Feb-11 16:30N 40°39' W 008°44'0 0.0
2016-Feb-11 15:27N 40°39' W 008°44'0 0.0
2016-Feb-11 14:27N 40°39' W 008°44'0 0.0
2016-Feb-11 13:33N 40°39' W 008°44'0 0.0
2016-Feb-11 12:30N 40°39' W 008°44'0 0.0
2016-Feb-11 11:23N 40°39' W 008°44'0 0.0
2016-Feb-11 10:30N 40°39' W 008°44'0 0.0
2016-Feb-11 09:33N 40°39' W 008°44'0 0.0
2016-Feb-11 08:33N 40°39' W 008°44'0 0.0
2016-Feb-11 07:30N 40°39' W 008°44'0 0.0
2016-Feb-11 06:30N 40°39' W 008°44'0 0.0
2016-Feb-11 05:30N 40°39' W 008°44'0 0.0
2016-Feb-11 04:30N 40°39' W 008°44'0 0.0
2016-Feb-11 03:27N 40°39' W 008°44'0 0.0
2016-Feb-11 02:33N 40°39' W 008°44'0 0.0
2016-Feb-11 01:21N 40°39' W 008°44'0 0.0
2016-Feb-11 00:30N 40°39' W 008°44'0 0.0
2016-Feb-10 23:27N 40°39' W 008°44'0 0.0
2016-Feb-10 22:27N 40°39' W 008°44'0 0.0
2016-Feb-10 21:33N 40°39' W 008°44'0 0.0
2016-Feb-10 20:27N 40°39' W 008°44'0 0.0
2016-Feb-10 19:33N 40°39' W 008°44'0 0.0
2016-Feb-10 18:27N 40°39' W 008°44'0 0.0
2016-Feb-10 17:30N 40°39' W 008°44'0 0.0
2016-Feb-10 16:33N 40°39' W 008°44'0 0.0
2016-Feb-10 15:27N 40°39' W 008°44'0 0.0
2016-Feb-10 14:27N 40°39' W 008°44'0 0.0
2016-Feb-10 13:34N 40°39' W 008°44'0 0.0
2016-Feb-10 12:33N 40°39' W 008°44'0 0.0
2016-Feb-10 11:30N 40°39' W 008°44'0 0.0
2016-Feb-10 10:18N 40°39' W 008°44'0 0.0
2016-Feb-10 09:21N 40°39' W 008°44'0 0.0
2016-Feb-10 08:27N 40°39' W 008°44'0 0.0
2016-Feb-10 07:33N 40°39' W 008°44'0 0.0
2016-Feb-10 06:33N 40°39' W 008°44'0 0.0
2016-Feb-10 05:30N 40°39' W 008°44'0 0.0
2016-Feb-10 04:30N 40°39' W 008°44'0 0.0
2016-Feb-10 03:23N 40°39' W 008°44'0 0.0
2016-Feb-10 02:27N 40°39' W 008°44'0 0.0
2016-Feb-10 01:30N 40°39' W 008°44'0 0.0
2016-Feb-10 00:33N 40°39' W 008°44'0 0.0
2016-Feb-09 23:30N 40°39' W 008°44'0 0.0
2016-Feb-09 22:31N 40°39' W 008°44'0 0.0
2016-Feb-09 21:11N 40°39' W 008°44'0 0.0
2016-Feb-09 20:33N 40°39' W 008°44'0 0.0
2016-Feb-09 19:33N 40°39' W 008°44'0 0.0
2016-Feb-09 18:27N 40°39' W 008°44'0 0.0
2016-Feb-09 17:30N 40°39' W 008°44'0 0.0
2016-Feb-09 16:27N 40°39' W 008°44'1 0.7
2016-Feb-09 15:31N 40°39' W 008°45'8 8.1
2016-Feb-09 14:33N 40°37' W 008°55'1111.0
2016-Feb-09 13:33N 40°28' W 009°02'1111.1
2016-Feb-09 12:33N 40°18' W 009°10'1111.1
2016-Feb-09 11:33N 40°09' W 009°18'1111.3
2016-Feb-09 10:33N 39°60' W 009°26'1110.5
2016-Feb-09 09:30N 39°50' W 009°33'1010.3
2016-Feb-09 08:33N 39°41' W 009°39'1110.6
2016-Feb-09 07:33N 39°31' W 009°44'10 9.9
2016-Feb-09 06:33N 39°21' W 009°46'1010.0
2016-Feb-09 05:33N 39°12' W 009°47'1010.3
2016-Feb-09 04:33N 39°01' W 009°49'1110.5
2016-Feb-09 03:33N 38°51' W 009°51'1010.3
2016-Feb-09 02:33N 38°41' W 009°50'1010.4
2016-Feb-09 01:34N 38°30' W 009°47'1110.5
2016-Feb-09 00:33N 38°20' W 009°44'1110.5
2016-Feb-08 23:32N 38°10' W 009°41'1010.3
2016-Feb-08 22:33N 37°60' W 009°38'1010.3
2016-Feb-08 21:33N 37°50' W 009°35'1010.2
2016-Feb-08 20:33N 37°40' W 009°33'1110.8
2016-Feb-08 19:33N 37°29' W 009°30'1110.7
2016-Feb-08 18:33N 37°19' W 009°27'1310.1
2016-Feb-08 17:18N 37°07' W 009°23'7 9.7
2016-Feb-08 16:33N 36°60' W 009°21'1010.3
2016-Feb-08 15:33N 36°50' W 009°15'10 9.9
2016-Feb-08 14:33N 36°44' W 009°05'10 9.8
2016-Feb-08 13:30N 36°41' W 008°53'1110.5
2016-Feb-08 12:30N 36°37' W 008°41'1310.2
2016-Feb-08 11:15N 36°33' W 008°26'710.6
2016-Feb-08 10:33N 36°31' W 008°17'6410.6
2016-Feb-08 04:33N 36°11' W 007°02'7110.1
2016-Feb-07 21:33N 35°58' W 005°36'9 8.9
2016-Feb-07 20:33N 36°00' W 005°25'8 8.2
2016-Feb-07 19:33N 35°54' W 005°18'1 0.9
2016-Feb-07 18:31N 35°54' W 005°19'0 0.0
2016-Feb-07 17:31N 35°54' W 005°19'0 0.0
2016-Feb-07 16:34N 35°54' W 005°19'0 0.1
2016-Feb-07 15:34N 35°54' W 005°19'7 6.6
2016-Feb-07 14:33N 35°56' W 005°11'7 7.2
2016-Feb-07 13:34N 35°57' W 005°02'182 9.1
2016-Feb-06 17:33N 36°37' W 001°22'3210.7
2016-Feb-06 14:33N 36°44' W 000°43'3210.7
2016-Feb-06 11:31N 36°51' W 000°04'1311.7
2016-Feb-06 10:22N 36°54' E 000°13'911.6
2016-Feb-06 09:34N 36°57' E 000°24'2611.6
2016-Feb-06 07:16N 37°04' E 000°56'4210.8
2016-Feb-06 03:24N 37°14' E 001°47'5011.7
2016-Feb-05 23:05N 37°27' E 002°48'27710.3
2016-Feb-04 20:12N 38°33' E 008°30'6 8.6
2016-Feb-04 19:33N 38°35' E 008°37'27 9.0
2016-Feb-04 16:33N 38°42' E 009°10'10 9.7
2016-Feb-04 15:33N 38°48' E 009°20'1010.1
2016-Feb-04 14:31N 38°54' E 009°31'  

Dump ship's entire track history